Time;durP1;ratioP1;P1;durP2;ratioP2;P2;SDS_P1;SDS_P2;PMS_P1;PMS_P2;Temp;Humidity;BMP_temperature;BMP_pressure;BME280_temperature;BME280_humidity;BME280_pressure;Samples;Min_cycle;Max_cycle;Signal;HPM_P1;HPM_P2
2021/11/25 00:01:37;;;;;;;16.80;11.55;;;22.60;96.00;;;;;;5070993;28;20424;-53
2021/11/25 00:04:04;;;;;;;15.98;9.95;;;22.70;95.80;;;;;;5070748;28;20403;-55
2021/11/25 00:06:32;;;;;;;22.88;12.77;;;22.70;96.30;;;;;;5070953;28;20032;-58
2021/11/25 00:08:59;;;;;;;16.60;10.95;;;22.70;95.50;;;;;;5068141;28;20025;-55
2021/11/25 00:11:26;;;;;;;17.42;11.05;;;22.70;95.80;;;;;;5071268;28;20036;-56
2021/11/25 00:13:54;;;;;;;16.92;10.60;;;22.70;95.60;;;;;;5071353;28;20119;-54
2021/11/25 00:16:21;;;;;;;13.75;9.00;;;22.80;95.90;;;;;;5070863;28;20472;-56
2021/11/25 00:18:49;;;;;;;15.98;10.25;;;22.80;96.20;;;;;;5065066;28;20504;-55
2021/11/25 00:21:16;;;;;;;15.32;9.55;;;22.80;95.40;;;;;;5068922;28;20387;-51
2021/11/25 00:23:44;;;;;;;15.70;8.50;;;22.90;95.80;;;;;;5071106;28;20136;-51
2021/11/25 00:26:12;;;;;;;13.68;8.02;;;22.90;95.80;;;;;;5070005;28;20039;-54
2021/11/25 00:28:40;;;;;;;17.77;9.73;;;22.90;96.10;;;;;;5070710;28;20020;-55
2021/11/25 00:31:08;;;;;;;13.40;8.25;;;22.90;95.70;;;;;;5067282;28;20426;-58
2021/11/25 00:33:36;;;;;;;13.43;8.35;;;23.00;95.90;;;;;;5068939;28;20060;-61
2021/11/25 00:36:03;;;;;;;17.45;8.48;;;23.00;95.90;;;;;;5070695;28;20034;-52
2021/11/25 00:38:31;;;;;;;13.52;8.30;;;23.00;96.10;;;;;;5070853;28;20471;-52
2021/11/25 00:40:58;;;;;;;18.27;9.30;;;23.10;95.80;;;;;;5067000;28;20031;-57
2021/11/25 00:43:26;;;;;;;14.13;10.00;;;23.10;95.40;;;;;;5067132;28;20044;-56
2021/11/25 00:45:53;;;;;;;13.45;8.30;;;23.00;94.90;;;;;;5070310;28;20115;-56
2021/11/25 00:48:21;;;;;;;12.45;8.15;;;23.10;95.50;;;;;;5070685;28;20078;-56
2021/11/25 00:50:48;;;;;;;11.75;6.95;;;23.10;95.00;;;;;;5066534;28;20368;-52
2021/11/25 00:53:16;;;;;;;12.80;8.63;;;23.20;95.50;;;;;;5070242;28;20049;-57
2021/11/25 00:55:47;;;;;;;12.30;8.63;;;23.20;95.40;;;;;;5070129;28;20020;-50
2021/11/25 00:58:15;;;;;;;13.80;8.82;;;23.20;95.00;;;;;;5070430;28;20028;-60
2021/11/25 01:00:42;;;;;;;10.35;7.03;;;23.20;95.20;;;;;;5066416;28;20051;-60
2021/11/25 01:03:10;;;;;;;11.80;7.82;;;23.20;95.30;;;;;;5069993;28;20036;-60
2021/11/25 01:05:37;;;;;;;11.82;7.90;;;23.20;94.70;;;;;;5070279;28;20041;-62
2021/11/25 01:08:05;;;;;;;10.40;6.70;;;23.20;94.80;;;;;;5070280;28;20116;-59
2021/11/25 01:10:34;;;;;;;9.38;6.95;;;23.20;94.90;;;;;;5066825;28;20032;-62
2021/11/25 01:13:02;;;;;;;13.65;5.63;;;23.20;94.90;;;;;;5066720;28;20017;-56
2021/11/25 01:15:32;;;;;;;12.07;6.60;;;23.30;95.30;;;;;;5069708;28;20032;-60
2021/11/25 01:18:05;;;;;;;12.55;6.35;;;23.30;94.80;;;;;;5070974;28;20379;-58
2021/11/25 01:20:33;;;;;;;10.23;5.80;;;23.40;95.00;;;;;;5065331;28;20024;-57
2021/11/25 01:23:04;;;;;;;11.43;6.32;;;23.40;94.90;;;;;;5069949;28;20036;-53
2021/11/25 01:25:32;;;;;;;8.73;5.95;;;23.40;95.00;;;;;;5068450;28;20040;-56
2021/11/25 01:28:00;;;;;;;13.00;7.70;;;23.50;94.90;;;;;;5069013;28;20060;-57
2021/11/25 01:30:28;;;;;;;10.93;6.80;;;23.50;94.60;;;;;;5066182;28;20044;-59
2021/11/25 01:32:56;;;;;;;14.10;6.82;;;23.50;94.60;;;;;;5070422;28;20086;-54
2021/11/25 01:35:24;;;;;;;10.40;5.47;;;23.50;94.60;;;;;;5070066;28;20474;-57
2021/11/25 01:37:51;;;;;;;9.13;6.32;;;23.50;94.60;;;;;;5070402;28;20024;-59
2021/11/25 01:40:19;;;;;;;8.23;5.60;;;23.60;94.70;;;;;;5066269;28;20159;-50
2021/11/25 01:42:46;;;;;;;9.52;5.95;;;23.60;94.60;;;;;;5069877;28;20025;-53
2021/11/25 01:45:14;;;;;;;8.88;5.65;;;23.70;94.40;;;;;;5069963;28;20356;-60
2021/11/25 01:47:44;;;;;;;6.13;4.22;;;23.70;94.60;;;;;;5069639;28;20025;-56
2021/11/25 01:50:14;;;;;;;10.27;5.50;;;23.80;94.60;;;;;;5066001;28;20029;-54
2021/11/25 01:52:42;;;;;;;11.77;5.55;;;23.80;94.20;;;;;;5066325;28;20020;-52
2021/11/25 01:55:10;;;;;;;8.23;5.47;;;23.90;94.50;;;;;;5068936;28;20111;-55
2021/11/25 01:57:38;;;;;;;7.55;4.90;;;24.00;94.20;;;;;;5069990;28;20032;-46
2021/11/25 02:00:09;;;;;;;10.45;5.78;;;24.00;94.60;;;;;;5064965;28;20105;-54
2021/11/25 02:02:36;;;;;;;10.00;6.35;;;24.00;94.50;;;;;;5067592;28;20044;-48
2021/11/25 02:05:04;;;;;;;8.88;6.82;;;24.10;93.80;;;;;;5065247;28;20081;-53
2021/11/25 02:07:32;;;;;;;9.18;6.43;;;24.10;93.80;;;;;;5069236;28;20016;-55
2021/11/25 02:09:59;;;;;;;10.60;6.57;;;24.10;94.00;;;;;;5066151;28;21232;-53
2021/11/25 02:12:27;;;;;;;9.27;6.93;;;24.10;93.80;;;;;;5069342;28;20016;-56
2021/11/25 02:14:54;;;;;;;8.75;6.80;;;24.20;94.10;;;;;;5069462;28;20054;-55
2021/11/25 02:17:22;;;;;;;10.77;6.82;;;24.20;93.60;;;;;;5068988;28;20047;-58
2021/11/25 02:19:51;;;;;;;7.57;5.30;;;24.20;94.20;;;;;;5065198;28;20028;-56
2021/11/25 02:22:21;;;;;;;9.57;6.45;;;24.30;94.30;;;;;;5068909;28;20135;-52
2021/11/25 02:24:51;;;;;;;8.93;6.45;;;24.20;94.10;;;;;;5068916;28;20171;-57
2021/11/25 02:27:22;;;;;;;11.65;7.28;;;24.20;93.90;;;;;;5067782;28;20017;-54
2021/11/25 02:29:51;;;;;;;9.88;6.55;;;24.20;93.90;;;;;;5065974;28;20417;-55
2021/11/25 02:32:37;;;;;;;11.32;8.32;;;24.30;94.30;;;;;;5068149;28;20449;-53
2021/11/25 02:35:10;;;;;;;25.35;16.60;;;24.20;93.90;;;;;;5067881;28;20031;-55
2021/11/25 02:37:38;;;;;;;9.88;6.93;;;24.30;94.30;;;;;;5068014;28;20070;-52
2021/11/25 02:40:50;;;;;;;9.55;6.30;;;24.30;94.10;;;;;;5071320;28;20063;-57
2021/11/25 02:43:21;;;;;;;10.55;5.93;;;24.20;94.00;;;;;;5033539;28;20404;-58
2021/11/25 02:46:01;;;;;;;9.43;6.07;;;24.20;94.10;;;;;;5069913;28;20037;-57
2021/11/25 02:48:32;;;;;;;9.73;5.53;;;24.20;94.30;;;;;;5072032;28;20025;-58
2021/11/25 02:51:00;;;;;;;9.43;6.53;;;24.20;94.40;;;;;;5072003;28;20028;-53
2021/11/25 02:53:31;;;;;;;11.35;6.35;;;24.20;93.80;;;;;;5070645;28;20357;-59
2021/11/25 02:56:07;;;;;;;9.23;6.03;;;24.00;94.10;;;;;;5071671;28;20024;-52
2021/11/25 02:58:35;;;;;;;12.20;6.07;;;24.10;94.30;;;;;;5072232;28;20491;-58
2021/11/25 03:01:10;;;;;;;10.95;6.85;;;24.00;94.40;;;;;;5072055;28;20025;-61
2021/11/25 03:03:38;;;;;;;11.20;6.25;;;24.00;94.70;;;;;;5072108;28;20021;-49
2021/11/25 03:06:06;;;;;;;10.48;5.60;;;23.90;95.00;;;;;;5070648;28;20039;-53
2021/11/25 03:08:33;;;;;;;9.15;5.53;;;24.00;95.00;;;;;;5071795;28;20016;-59
2021/11/25 03:11:10;;;;;;;8.45;5.35;;;24.00;95.40;;;;;;5071731;28;20073;-57
2021/11/25 03:13:40;;;;;;;10.40;6.00;;;23.90;95.30;;;;;;5072052;28;20031;-56
2021/11/25 03:16:10;;;;;;;13.25;6.68;;;23.80;94.90;;;;;;5072667;28;20086;-57
2021/11/25 03:18:38;;;;;;;9.95;5.38;;;23.80;96.10;;;;;;5075263;28;20066;-59
2021/11/25 03:21:26;;;;;;;8.82;5.78;;;23.90;95.70;;;;;;5073150;28;20066;-53
2021/11/25 03:23:58;;;;;;;8.75;5.43;;;23.80;95.10;;;;;;5074965;28;20422;-55
2021/11/25 03:26:27;;;;;;;8.73;5.70;;;23.70;94.80;;;;;;5075024;28;20529;-53
2021/11/25 03:28:56;;;;;;;8.07;5.45;;;23.80;96.10;;;;;;5075296;28;20029;-51
2021/11/25 03:31:30;;;;;;;8.45;4.63;;;23.80;95.30;;;;;;5072878;28;20021;-53
2021/11/25 03:33:59;;;;;;;18.67;7.38;;;23.90;98.40;;;;;;5069459;28;20030;-61
2021/11/25 03:36:28;;;;;;;16.40;5.80;;;23.90;98.10;;;;;;5073068;28;20379;-56
2021/11/25 03:38:56;;;;;;;8.00;5.22;;;23.80;97.60;;;;;;5067077;28;20454;-59
2021/11/25 03:41:25;;;;;;;10.43;5.70;;;23.80;97.30;;;;;;5060755;28;20541;-55
2021/11/25 03:43:53;;;;;;;8.68;5.40;;;23.70;95.60;;;;;;5069735;28;20432;-54
2021/11/25 03:46:20;;;;;;;14.10;6.07;;;23.50;95.20;;;;;;5073534;28;20028;-57
2021/11/25 03:48:48;;;;;;;13.38;5.43;;;23.70;95.30;;;;;;5068982;28;20052;-59
2021/11/25 03:51:16;;;;;;;11.35;6.00;;;23.80;96.70;;;;;;5064159;28;20033;-61
2021/11/25 03:53:46;;;;;;;8.68;5.80;;;23.90;95.80;;;;;;5073466;28;20051;-63
2021/11/25 03:56:14;;;;;;;11.15;5.22;;;23.80;95.10;;;;;;5071106;28;20146;-57
2021/11/25 03:58:42;;;;;;;19.60;5.35;;;23.70;95.30;;;;;;5071053;28;20033;-58
2021/11/25 04:01:10;;;;;;;9.18;4.90;;;23.90;97.10;;;;;;5066507;28;20111;-53
2021/11/25 04:03:39;;;;;;;12.32;5.20;;;23.80;95.20;;;;;;5072902;28;20115;-53
2021/11/25 04:06:06;;;;;;;21.00;6.45;;;23.90;96.90;;;;;;5070458;28;20041;-54
2021/11/25 04:08:34;;;;;;;11.45;5.20;;;24.00;97.90;;;;;;5070934;28;20032;-64
2021/11/25 04:11:02;;;;;;;19.85;5.18;;;24.00;95.40;;;;;;5064574;28;20029;-59
2021/11/25 04:13:30;;;;;;;13.73;5.35;;;24.10;97.40;;;;;;5073554;28;20016;-58
2021/11/25 04:15:57;;;;;;;9.50;5.10;;;24.00;97.50;;;;;;5072816;28;20473;-54
2021/11/25 04:18:24;;;;;;;15.77;4.47;;;23.80;96.20;;;;;;5072901;28;20029;-58
2021/11/25 04:20:52;;;;;;;16.17;4.80;;;24.00;96.90;;;;;;5067797;28;20085;-59
2021/11/25 04:23:20;;;;;;;16.95;4.00;;;24.00;96.50;;;;;;5072453;28;20102;-56
2021/11/25 04:25:47;;;;;;;11.98;4.80;;;24.00;96.70;;;;;;5072902;28;20391;-56
2021/11/25 04:28:15;;;;;;;18.25;4.53;;;24.10;95.20;;;;;;5070640;28;20468;-57
2021/11/25 04:35:58;;;;;;;12.02;5.28;;;24.10;96.40;;;;;;5072593;28;20081;-57
2021/11/25 04:38:26;;;;;;;13.32;4.13;;;23.90;95.50;;;;;;5072379;28;20575;-55
2021/11/25 04:41:02;;;;;;;8.98;4.22;;;24.00;95.40;;;;;;5067275;28;20029;-55
2021/11/25 04:43:31;;;;;;;10.23;4.43;;;24.00;95.50;;;;;;5071941;28;20033;-52
2021/11/25 04:45:59;;;;;;;9.20;4.50;;;23.90;95.30;;;;;;5072271;28;20518;-59
2021/11/25 04:48:28;;;;;;;13.13;3.25;;;23.90;95.50;;;;;;5072041;28;20039;-56
2021/11/25 04:50:56;;;;;;;10.18;3.63;;;24.00;96.30;;;;;;5067321;28;20051;-57
2021/11/25 04:53:25;;;;;;;14.40;3.72;;;24.00;96.00;;;;;;5071310;28;20044;-55
2021/11/25 04:55:52;;;;;;;11.98;4.22;;;24.10;96.20;;;;;;5072170;28;20033;-54
2021/11/25 04:58:20;;;;;;;8.18;4.20;;;24.30;95.40;;;;;;5072277;28;20499;-53
2021/11/25 05:00:47;;;;;;;12.63;4.05;;;24.00;95.20;;;;;;5066835;28;20027;-59
2021/11/25 05:03:15;;;;;;;11.68;3.67;;;23.90;95.80;;;;;;5072204;28;20108;-60
2021/11/25 05:05:43;;;;;;;8.65;3.17;;;24.10;96.30;;;;;;5072136;28;20032;-56
2021/11/25 05:08:11;;;;;;;9.57;3.08;;;24.10;95.50;;;;;;5071907;28;20086;-61
2021/11/25 05:10:39;;;;;;;8.05;4.25;;;24.10;96.10;;;;;;5066519;28;20024;-53
2021/11/25 05:13:07;;;;;;;7.72;3.42;;;24.10;95.30;;;;;;5072139;28;20107;-54
2021/11/25 05:15:34;;;;;;;9.88;3.35;;;24.00;96.00;;;;;;5072448;28;20050;-57
2021/11/25 05:18:01;;;;;;;8.95;2.72;;;24.10;95.70;;;;;;5071476;28;20382;-55
2021/11/25 05:20:29;;;;;;;12.02;3.47;;;24.20;95.70;;;;;;5065618;28;20023;-52
2021/11/25 05:22:56;;;;;;;9.57;3.95;;;24.20;95.80;;;;;;5071231;28;20032;-61
2021/11/25 05:25:24;;;;;;;13.60;3.67;;;24.20;95.30;;;;;;5071970;28;20033;-54
2021/11/25 05:27:52;;;;;;;14.85;3.92;;;24.10;95.50;;;;;;5071011;28;20033;-56
2021/11/25 05:30:21;;;;;;;11.38;3.45;;;24.10;95.50;;;;;;5065117;28;20103;-55
2021/11/25 05:32:49;;;;;;;13.50;4.18;;;24.00;96.80;;;;;;5071683;28;20104;-58
2021/11/25 05:35:17;;;;;;;19.20;5.50;;;24.00;97.60;;;;;;5071110;28;20070;-61
2021/11/25 05:37:45;;;;;;;14.30;4.50;;;24.00;98.20;;;;;;5071876;28;20027;-60
2021/11/25 05:40:14;;;;;;;10.45;4.03;;;23.90;96.70;;;;;;5072061;28;20087;-60
2021/11/25 05:42:43;;;;;;;12.40;4.18;;;23.80;96.50;;;;;;5068131;28;20021;-50
2021/11/25 05:45:14;;;;;;;21.63;4.93;;;23.80;96.80;;;;;;5072057;28;20395;-56
2021/11/25 05:47:43;;;;;;;12.90;4.47;;;23.80;98.60;;;;;;5071578;28;20498;-60
2021/11/25 05:50:18;;;;;;;15.50;4.47;;;23.80;97.50;;;;;;5072092;28;20041;-51
2021/11/25 05:52:51;;;;;;;11.75;3.60;;;23.70;96.90;;;;;;5070534;28;20433;-59
2021/11/25 05:55:19;;;;;;;20.17;5.72;;;23.70;98.10;;;;;;5072698;28;20070;-56
2021/11/25 05:57:46;;;;;;;16.13;4.28;;;23.80;99.40;;;;;;5072377;28;20487;-59
2021/11/25 06:00:16;;;;;;;15.63;3.58;;;23.80;98.40;;;;;;5072674;28;20031;-57
2021/11/25 06:02:45;;;;;;;14.98;4.05;;;23.60;98.10;;;;;;5072791;28;20110;-61
2021/11/25 06:05:15;;;;;;;12.77;3.85;;;23.60;98.50;;;;;;5072042;28;20036;-55
2021/11/25 06:07:47;;;;;;;14.35;4.00;;;23.60;98.70;;;;;;5073054;28;20016;-56
2021/11/25 06:10:17;;;;;;;16.45;4.88;;;23.40;98.60;;;;;;5072625;28;20029;-58
2021/11/25 06:12:45;;;;;;;14.90;3.95;;;23.50;99.30;;;;;;5072555;28;20028;-55
2021/11/25 06:15:13;;;;;;;13.27;4.43;;;23.40;98.80;;;;;;5072449;28;20328;-57
2021/11/25 06:17:40;;;;;;;14.00;3.67;;;23.40;98.80;;;;;;5072486;28;20090;-59
2021/11/25 06:20:12;;;;;;;14.13;3.30;;;23.40;98.80;;;;;;5072845;28;20033;-59
2021/11/25 06:22:51;;;;;;;13.05;3.53;;;23.50;98.70;;;;;;5073062;28;20048;-57
2021/11/25 06:25:24;;;;;;;14.63;3.97;;;23.40;97.90;;;;;;5071943;28;20575;-49
2021/11/25 06:27:53;;;;;;;11.80;4.13;;;23.40;98.10;;;;;;5072159;28;20036;-50
2021/11/25 06:30:21;;;;;;;13.55;4.05;;;23.40;97.90;;;;;;5072751;28;20017;-62
2021/11/25 06:32:49;;;;;;;11.70;4.10;;;23.40;98.00;;;;;;5072744;28;20047;-55
2021/11/25 06:35:19;;;;;;;14.77;4.05;;;23.40;98.10;;;;;;5073256;28;20052;-52
2021/11/25 06:37:54;;;;;;;17.98;3.90;;;23.30;97.40;;;;;;5071851;28;20387;-59
2021/11/25 06:40:35;;;;;;;13.85;4.18;;;23.30;97.50;;;;;;5070368;28;20038;-61
2021/11/25 06:43:06;;;;;;;18.80;6.05;;;23.40;98.20;;;;;;5065165;28;20021;-56
2021/11/25 06:45:34;;;;;;;13.05;6.32;;;23.40;98.10;;;;;;5068643;28;20519;-51
2021/11/25 06:48:02;;;;;;;12.18;6.00;;;23.40;97.60;;;;;;5071130;28;20028;-53
2021/11/25 06:50:30;;;;;;;20.08;7.97;;;23.40;97.60;;;;;;5074894;28;20120;-66
2021/11/25 06:52:57;;;;;;;17.63;9.65;;;23.40;97.90;;;;;;5076440;28;20032;-57
2021/11/25 06:55:25;;;;;;;26.02;12.73;;;23.50;98.70;;;;;;5075078;28;20458;-51
2021/11/25 06:57:53;;;;;;;31.38;18.02;;;23.50;98.80;;;;;;5075657;28;20094;-50
2021/11/25 07:00:23;;;;;;;17.70;9.70;;;23.40;99.00;;;;;;5074136;28;20037;-48
2021/11/25 07:02:54;;;;;;;25.00;18.77;;;23.30;99.30;;;;;;5075997;28;20028;-56
2021/11/25 07:05:26;;;;;;;23.73;16.10;;;23.30;99.00;;;;;;5073817;28;20033;-61
2021/11/25 07:07:55;;;;;;;41.80;33.53;;;23.30;98.80;;;;;;5076135;28;20095;-63
2021/11/25 07:10:23;;;;;;;30.38;26.58;;;23.40;98.70;;;;;;5074443;28;20037;-53
2021/11/25 07:12:54;;;;;;;28.88;21.85;;;23.40;98.60;;;;;;5075909;28;20024;-53
2021/11/25 07:15:23;;;;;;;19.60;14.50;;;23.30;98.40;;;;;;5074964;28;20052;-54
2021/11/25 07:17:51;;;;;;;18.58;9.52;;;23.30;98.40;;;;;;5073877;28;20471;-56
2021/11/25 07:20:20;;;;;;;20.35;9.43;;;23.30;98.70;;;;;;5075480;28;20116;-58
2021/11/25 07:22:48;;;;;;;17.00;9.80;;;23.30;99.20;;;;;;5075520;28;20032;-64
2021/11/25 07:25:19;;;;;;;15.80;9.13;;;23.20;99.20;;;;;;5074604;28;20036;-59
2021/11/25 07:27:47;;;;;;;17.98;8.07;;;23.20;99.30;;;;;;5076453;28;20466;-65
2021/11/25 07:30:17;;;;;;;16.40;6.45;;;23.20;99.50;;;;;;5075916;28;20073;-56
2021/11/25 07:32:45;;;;;;;13.55;7.35;;;23.10;99.80;;;;;;5075740;28;20028;-46
2021/11/25 07:35:20;;;;;;;15.73;7.20;;;23.10;99.90;;;;;;5075214;28;20118;-63
2021/11/25 07:37:48;;;;;;;13.50;7.65;;;23.10;99.70;;;;;;5075672;28;20020;-66
2021/11/25 07:40:16;;;;;;;11.73;7.65;;;23.10;99.50;;;;;;5073998;28;20204;-58
2021/11/25 07:42:43;;;;;;;11.48;5.97;;;23.10;99.50;;;;;;5075440;28;20028;-59
2021/11/25 07:45:11;;;;;;;15.95;5.78;;;23.20;99.70;;;;;;5075574;28;20032;-65
2021/11/25 07:47:39;;;;;;;11.10;5.43;;;23.20;99.90;;;;;;5076126;28;20379;-54
2021/11/25 07:50:12;;;;;;;12.50;6.97;;;23.20;99.80;;;;;;5075225;28;20399;-56
2021/11/25 07:52:40;;;;;;;17.45;6.70;;;23.20;99.90;;;;;;5075424;28;20058;-61
2021/11/25 07:55:10;;;;;;;15.82;6.97;;;23.20;99.90;;;;;;5076211;28;20155;-56
2021/11/25 07:57:44;;;;;;;15.85;7.47;;;23.20;99.70;;;;;;5075127;28;20086;-59
2021/11/25 08:00:13;;;;;;;17.33;6.97;;;23.30;99.60;;;;;;5075056;28;20525;-59
2021/11/25 08:02:41;;;;;;;17.80;6.32;;;23.30;99.60;;;;;;5074541;28;20058;-67
2021/11/25 08:05:10;;;;;;;21.00;5.68;;;23.30;99.60;;;;;;5074802;28;20033;-65
2021/11/25 08:07:39;;;;;;;24.65;5.72;;;23.30;99.70;;;;;;5074698;28;20086;-56
2021/11/25 08:10:09;;;;;;;14.07;4.50;;;23.30;99.90;;;;;;5073358;28;20374;-65
2021/11/25 08:12:37;;;;;;;13.82;5.22;;;23.30;99.90;;;;;;5074852;28;20048;-60
2021/11/25 08:15:05;;;;;;;22.08;5.60;;;23.20;99.80;;;;;;5074425;28;20024;-65
2021/11/25 08:17:33;;;;;;;15.25;4.75;;;23.20;99.90;;;;;;5074137;28;20417;-63
2021/11/25 08:20:01;;;;;;;21.52;4.88;;;23.20;99.90;;;;;;5068368;28;20221;-52
2021/11/25 08:22:28;;;;;;;17.15;6.38;;;23.20;99.90;;;;;;5071394;28;20032;-58
2021/11/25 08:24:55;;;;;;;15.60;5.28;;;23.20;99.90;;;;;;5071904;28;20107;-59
2021/11/25 08:27:23;;;;;;;16.13;3.92;;;23.10;99.90;;;;;;5073898;28;20486;-57
2021/11/25 08:29:51;;;;;;;21.80;5.15;;;23.00;99.90;;;;;;5073888;28;20026;-62
2021/11/25 08:32:18;;;;;;;21.45;4.60;;;23.00;99.90;;;;;;5074203;28;20494;-63
2021/11/25 08:34:46;;;;;;;23.27;5.22;;;23.00;99.90;;;;;;5073553;28;20032;-56
2021/11/25 08:37:13;;;;;;;20.23;4.15;;;23.10;99.90;;;;;;5074361;28;20082;-55
2021/11/25 08:39:41;;;;;;;20.25;4.70;;;23.00;99.90;;;;;;5073881;28;20073;-60
2021/11/25 08:42:09;;;;;;;15.77;4.65;;;22.90;99.90;;;;;;5072344;28;20029;-57
2021/11/25 08:44:37;;;;;;;15.88;4.50;;;23.00;99.90;;;;;;5073952;28;20399;-63
2021/11/25 08:47:05;;;;;;;15.38;3.83;;;22.90;99.90;;;;;;5073993;28;20020;-60
2021/11/25 08:49:33;;;;;;;12.60;4.10;;;23.00;99.90;;;;;;5073867;28;20124;-62
2021/11/25 08:52:02;;;;;;;11.00;3.75;;;23.00;99.90;;;;;;5073283;28;20350;-64
2021/11/25 08:54:30;;;;;;;15.20;4.25;;;23.10;99.90;;;;;;5072818;28;20045;-61
2021/11/25 08:56:57;;;;;;;14.57;4.20;;;23.20;99.90;;;;;;5071847;28;20029;-64
2021/11/25 08:59:51;;;;;;;18.90;5.65;;;23.10;99.90;;;;;;5072904;28;20024;-55
2021/11/25 09:02:19;;;;;;;14.15;4.05;;;23.10;99.90;;;;;;5071787;28;20032;-62
2021/11/25 09:04:52;;;;;;;20.23;4.43;;;23.20;99.90;;;;;;5065472;28;20033;-56
2021/11/25 09:07:19;;;;;;;13.82;5.00;;;23.30;99.90;;;;;;5070016;28;20047;-60
2021/11/25 09:09:47;;;;;;;15.68;5.30;;;23.30;99.90;;;;;;5069351;28;20012;-57
2021/11/25 09:12:14;;;;;;;17.30;5.03;;;23.30;99.90;;;;;;5069177;28;20063;-62
2021/11/25 09:14:42;;;;;;;17.90;4.88;;;23.30;99.90;;;;;;5061804;28;20036;-62
2021/11/25 09:17:14;;;;;;;14.90;4.28;;;23.30;99.90;;;;;;5070865;28;20379;-63
2021/11/25 09:19:45;;;;;;;21.92;5.40;;;23.20;99.90;;;;;;5068997;28;20137;-64
2021/11/25 09:22:15;;;;;;;19.20;4.93;;;23.30;99.90;;;;;;5067977;28;20082;-60
2021/11/25 09:25:04;;;;;;;17.85;4.97;;;23.30;99.90;;;;;;5062117;28;20040;-62
2021/11/25 09:27:32;;;;;;;15.65;4.70;;;23.30;99.90;;;;;;5052257;28;20371;-58
2021/11/25 09:30:01;;;;;;;19.85;5.22;;;23.30;99.90;;;;;;5068966;28;20454;-54
2021/11/25 09:32:33;;;;;;;11.60;5.65;;;23.30;99.90;;;;;;5053127;28;20102;-52
2021/11/25 09:35:01;;;;;;;17.95;3.72;;;23.30;99.90;;;;;;5062231;28;20078;-53
2021/11/25 09:37:29;;;;;;;15.55;3.60;;;23.30;99.90;;;;;;5069433;28;20375;-57
2021/11/25 09:39:57;;;;;;;11.95;3.95;;;23.20;99.90;;;;;;5071151;28;20024;-60
2021/11/25 09:42:26;;;;;;;14.13;6.13;;;23.20;99.90;;;;;;5069883;28;20028;-59
2021/11/25 09:44:55;;;;;;;20.92;9.27;;;23.20;99.90;;;;;;5063188;28;20103;-54
2021/11/25 09:47:23;;;;;;;24.70;12.23;;;23.30;99.90;;;;;;5072067;28;20021;-57
2021/11/25 09:49:51;;;;;;;33.40;16.33;;;23.30;99.90;;;;;;5071377;28;20020;-56
2021/11/25 09:52:19;;;;;;;31.42;16.30;;;23.20;99.90;;;;;;5071512;28;20063;-50
2021/11/25 09:54:47;;;;;;;32.28;17.73;;;23.20;99.90;;;;;;5063953;28;20060;-56
2021/11/25 09:57:15;;;;;;;32.58;18.90;;;23.20;99.80;;;;;;5053885;28;20032;-50
2021/11/25 09:59:43;;;;;;;33.50;17.70;;;23.20;99.90;;;;;;5070242;28;20108;-53
2021/11/25 10:02:10;;;;;;;33.42;16.08;;;23.20;99.70;;;;;;5071791;28;20024;-59
2021/11/25 10:04:39;;;;;;;26.20;15.15;;;23.20;99.60;;;;;;5063298;28;20486;-54
2021/11/25 10:07:08;;;;;;;28.17;15.18;;;23.20;99.60;;;;;;5070482;28;20407;-58
2021/11/25 10:09:39;;;;;;;26.92;14.88;;;23.20;99.50;;;;;;5071508;28;20112;-51
2021/11/25 10:12:41;;;;;;;23.40;12.88;;;23.20;99.50;;;;;;5070273;28;20032;-49
2021/11/25 10:15:42;;;;;;;26.52;13.65;;;23.20;99.60;;;;;;5063113;28;20028;-49
2021/11/25 10:18:18;;;;;;;23.92;12.90;;;23.20;99.60;;;;;;5068873;28;20020;-51
2021/11/25 10:20:52;;;;;;;25.80;13.85;;;23.10;99.50;;;;;;5070118;28;20023;-56
2021/11/25 10:23:35;;;;;;;19.85;12.70;;;23.10;99.50;;;;;;5066256;28;20104;-54
2021/11/25 10:26:30;;;;;;;24.98;13.55;;;23.10;99.40;;;;;;5071581;28;20045;-56
2021/11/25 10:29:22;;;;;;;21.13;12.13;;;23.10;99.50;;;;;;5072959;28;20025;-51
2021/11/25 10:31:55;;;;;;;21.73;12.52;;;23.10;99.50;;;;;;5075242;28;20722;-54
2021/11/25 10:34:54;;;;;;;20.75;12.10;;;23.10;99.40;;;;;;5063255;28;20029;-59
2021/11/25 10:37:54;;;;;;;24.08;12.43;;;23.10;99.40;;;;;;5072591;28;20116;-59
2021/11/25 10:40:30;;;;;;;21.75;12.23;;;23.10;99.30;;;;;;5073920;28;20497;-54
2021/11/25 10:42:59;;;;;;;19.70;12.05;;;23.10;99.20;;;;;;5072933;28;20033;-53
2021/11/25 10:45:28;;;;;;;22.25;12.77;;;23.10;99.20;;;;;;5064800;28;20045;-55
2021/11/25 10:48:01;;;;;;;22.15;11.98;;;23.00;99.10;;;;;;5073398;28;20024;-49
2021/11/25 10:50:31;;;;;;;21.85;11.75;;;23.10;99.10;;;;;;5075290;28;20489;-51
2021/11/25 10:53:32;;;;;;;16.70;10.52;;;23.00;99.00;;;;;;5066955;28;20044;-52
2021/11/25 10:56:09;;;;;;;20.00;11.07;;;23.00;99.00;;;;;;5074081;28;20046;-53
2021/11/25 10:58:53;;;;;;;21.17;11.77;;;23.00;99.00;;;;;;5073755;28;20048;-60
2021/11/25 11:01:34;;;;;;;20.35;11.05;;;23.00;99.10;;;;;;5071220;28;20040;-55
2021/11/25 11:04:05;;;;;;;17.25;10.23;;;23.00;99.10;;;;;;5067288;28;20036;-48
2021/11/25 11:06:46;;;;;;;21.97;10.87;;;23.00;99.10;;;;;;5074765;28;20107;-54
2021/11/25 11:09:40;;;;;;;20.45;10.27;;;23.00;99.00;;;;;;5074700;28;20740;-55
2021/11/25 11:12:45;;;;;;;18.90;9.65;;;23.00;99.00;;;;;;5074714;28;20059;-58
2021/11/25 11:18:42;;;;;;;17.58;10.38;;;22.90;98.90;;;;;;5055886;28;20036;-57
2021/11/25 11:20:50;;;;;;;18.83;10.75;;;23.00;98.90;;;;;;5069463;28;20037;-56
2021/11/25 11:23:23;;;;;;;16.05;9.70;;;22.90;98.90;;;;;;5055798;28;20071;-61
2021/11/25 11:26:10;;;;;;;18.65;10.40;;;22.90;98.80;;;;;;5068274;28;20034;-59
2021/11/25 11:28:39;;;;;;;16.77;9.57;;;22.90;98.80;;;;;;5055605;28;20025;-58
2021/11/25 11:31:07;;;;;;;17.45;9.80;;;22.90;98.80;;;;;;5070741;28;20036;-59
2021/11/25 11:33:38;;;;;;;21.13;10.18;;;22.90;98.80;;;;;;5054694;28;20025;-58
2021/11/25 11:36:28;;;;;;;15.93;9.25;;;22.90;98.80;;;;;;5054418;28;20029;-62
2021/11/25 11:38:59;;;;;;;16.52;9.65;;;22.80;98.80;;;;;;5055789;28;20043;-61
2021/11/25 11:41:31;;;;;;;17.08;9.40;;;22.80;98.80;;;;;;5055586;28;20052;-58
2021/11/25 11:44:02;;;;;;;15.02;8.90;;;22.80;98.80;;;;;;5055052;28;20020;-56
2021/11/25 11:46:33;;;;;;;16.25;9.57;;;22.80;98.80;;;;;;5054285;28;20032;-55
2021/11/25 11:49:01;;;;;;;17.63;9.48;;;22.80;98.80;;;;;;5050372;28;20061;-55
2021/11/25 11:51:31;;;;;;;17.90;9.45;;;22.80;98.90;;;;;;5055220;28;20471;-57
2021/11/25 11:54:01;;;;;;;18.50;9.55;;;22.70;98.90;;;;;;5037236;28;20063;-57
2021/11/25 11:56:43;;;;;;;19.48;9.48;;;22.70;98.90;;;;;;5055071;28;20025;-58
2021/11/25 11:59:12;;;;;;;18.42;8.85;;;22.70;98.90;;;;;;5037815;28;20559;-54
2021/11/25 12:01:42;;;;;;;21.45;9.60;;;22.70;98.90;;;;;;5055019;28;20552;-60
2021/11/25 12:04:19;;;;;;;18.48;9.30;;;22.70;98.90;;;;;;5052749;28;20029;-60
2021/11/25 12:06:49;;;;;;;16.20;9.02;;;22.60;98.90;;;;;;5055112;28;20029;-59
2021/11/25 12:09:27;;;;;;;17.60;8.82;;;22.70;98.90;;;;;;5054848;28;20031;-56
2021/11/25 12:12:10;;;;;;;14.65;8.50;;;22.60;98.90;;;;;;5054526;28;20028;-56
2021/11/25 12:14:38;;;;;;;16.05;9.23;;;22.60;98.90;;;;;;5054760;28;20032;-61
2021/11/25 12:17:08;;;;;;;15.57;9.05;;;22.60;98.90;;;;;;5054873;28;20022;-57
2021/11/25 12:19:54;;;;;;;11.43;8.38;;;22.60;98.90;;;;;;5054169;28;20434;-55
2021/11/25 12:22:27;;;;;;;17.42;8.13;;;22.60;98.90;;;;;;5054632;28;20529;-61
2021/11/25 12:25:01;;;;;;;13.00;8.65;;;22.60;98.90;;;;;;5087086;28;20040;-57
2021/11/25 12:27:37;;;;;;;16.35;9.20;;;22.60;98.90;;;;;;5054146;28;20028;-57
2021/11/25 12:30:16;;;;;;;13.93;8.80;;;22.60;98.90;;;;;;5051427;28;20021;-59
2021/11/25 12:32:45;;;;;;;13.27;8.20;;;22.50;98.90;;;;;;5054305;28;20052;-62
2021/11/25 12:35:27;;;;;;;15.23;7.75;;;22.50;98.90;;;;;;5054238;28;20033;-59
2021/11/25 12:38:03;;;;;;;15.90;7.72;;;22.50;99.00;;;;;;5054216;28;20074;-59
2021/11/25 12:40:33;;;;;;;14.02;7.97;;;22.50;99.00;;;;;;5054446;28;20036;-53
2021/11/25 12:43:13;;;;;;;15.45;8.15;;;22.50;98.90;;;;;;5054476;27;20021;-61
2021/11/25 12:46:05;;;;;;;16.52;7.63;;;22.50;98.90;;;;;;5054227;28;20049;-59
2021/11/25 12:48:42;;;;;;;11.60;6.90;;;22.50;98.90;;;;;;5053794;28;20052;-60
2021/11/25 12:51:19;;;;;;;15.73;7.43;;;22.50;98.90;;;;;;5086152;28;20099;-60
2021/11/25 12:53:59;;;;;;;12.60;7.72;;;22.50;99.00;;;;;;5054077;28;20148;-49
2021/11/25 12:56:34;;;;;;;13.63;7.68;;;22.50;99.00;;;;;;5054136;28;20372;-59
2021/11/25 12:59:10;;;;;;;12.77;6.82;;;22.40;99.00;;;;;;5055966;28;20130;-59
2021/11/25 13:01:47;;;;;;;12.82;7.68;;;22.50;99.00;;;;;;5054304;28;20467;-58
2021/11/25 13:04:18;;;;;;;11.93;6.82;;;22.50;99.00;;;;;;5053635;28;20040;-59